sensor_id;sensor_type;location;lat;lon;timestamp;P1;durP1;ratioP1;P2;durP2;ratioP2
69981;SDS011;57319;56.274;43.980;2023-09-19T00:00:22;19.52;;;7.05;;
69981;SDS011;57319;56.274;43.980;2023-09-19T00:02:55;19.20;;;7.50;;
69981;SDS011;57319;56.274;43.980;2023-09-19T00:05:22;12.00;;;7.15;;
69981;SDS011;57319;56.274;43.980;2023-09-19T00:07:50;10.98;;;6.82;;
69981;SDS011;57319;56.274;43.980;2023-09-19T00:10:19;12.25;;;7.03;;
69981;SDS011;57319;56.274;43.980;2023-09-19T00:12:50;15.00;;;7.05;;
69981;SDS011;57319;56.274;43.980;2023-09-19T00:15:18;13.68;;;7.55;;
69981;SDS011;57319;56.274;43.980;2023-09-19T00:17:44;10.02;;;6.70;;
69981;SDS011;57319;56.274;43.980;2023-09-19T00:20:10;13.77;;;7.90;;
69981;SDS011;57319;56.274;43.980;2023-09-19T00:22:41;13.02;;;7.30;;
69981;SDS011;57319;56.274;43.980;2023-09-19T00:25:08;14.23;;;7.30;;
69981;SDS011;57319;56.274;43.980;2023-09-19T00:27:35;23.15;;;7.38;;
69981;SDS011;57319;56.274;43.980;2023-09-19T00:30:07;24.40;;;8.88;;
69981;SDS011;57319;56.274;43.980;2023-09-19T00:32:40;14.40;;;7.45;;
69981;SDS011;57319;56.274;43.980;2023-09-19T00:35:06;16.77;;;8.00;;
69981;SDS011;57319;56.274;43.980;2023-09-19T00:37:36;9.45;;;7.25;;
69981;SDS011;57319;56.274;43.980;2023-09-19T00:40:03;15.32;;;7.25;;
69981;SDS011;57319;56.274;43.980;2023-09-19T00:42:31;12.40;;;7.47;;
69981;SDS011;57319;56.274;43.980;2023-09-19T00:44:57;12.85;;;8.02;;
69981;SDS011;57319;56.274;43.980;2023-09-19T00:47:22;14.27;;;8.20;;
69981;SDS011;57319;56.274;43.980;2023-09-19T00:49:48;11.13;;;7.07;;
69981;SDS011;57319;56.274;43.980;2023-09-19T00:52:18;13.20;;;7.18;;
69981;SDS011;57319;56.274;43.980;2023-09-19T00:54:49;11.15;;;7.70;;
69981;SDS011;57319;56.274;43.980;2023-09-19T00:57:15;17.50;;;7.85;;
69981;SDS011;57319;56.274;43.980;2023-09-19T00:59:44;22.90;;;7.95;;
69981;SDS011;57319;56.274;43.980;2023-09-19T01:02:13;10.90;;;8.00;;
69981;SDS011;57319;56.274;43.980;2023-09-19T01:04:41;17.38;;;7.82;;
69981;SDS011;57319;56.274;43.980;2023-09-19T01:07:07;16.52;;;8.73;;
69981;SDS011;57319;56.274;43.980;2023-09-19T01:09:34;24.02;;;9.15;;
69981;SDS011;57319;56.274;43.980;2023-09-19T01:12:01;16.95;;;8.07;;
69981;SDS011;57319;56.274;43.980;2023-09-19T01:17:46;13.05;;;9.18;;
69981;SDS011;57319;56.274;43.980;2023-09-19T01:20:27;18.20;;;9.63;;
69981;SDS011;57319;56.274;43.980;2023-09-19T01:23:10;20.02;;;9.55;;
69981;SDS011;57319;56.274;43.980;2023-09-19T01:31:19;14.25;;;9.02;;
69981;SDS011;57319;56.274;43.980;2023-09-19T01:33:59;15.98;;;8.35;;
69981;SDS011;57319;56.274;43.980;2023-09-19T01:36:26;15.13;;;8.60;;
69981;SDS011;57319;56.274;43.980;2023-09-19T01:38:59;17.45;;;9.23;;
69981;SDS011;57319;56.274;43.980;2023-09-19T01:42:17;24.30;;;8.85;;
69981;SDS011;57319;56.274;43.980;2023-09-19T01:44:40;17.65;;;9.20;;
69981;SDS011;57319;56.274;43.980;2023-09-19T01:47:33;18.65;;;9.05;;
69981;SDS011;57319;56.274;43.980;2023-09-19T01:50:06;20.45;;;8.65;;
69981;SDS011;57319;56.274;43.980;2023-09-19T01:52:53;15.90;;;9.07;;
69981;SDS011;57319;56.274;43.980;2023-09-19T01:55:22;12.55;;;8.60;;
69981;SDS011;57319;56.274;43.980;2023-09-19T01:57:58;15.13;;;9.20;;
69981;SDS011;57319;56.274;43.980;2023-09-19T02:00:29;14.80;;;9.32;;
69981;SDS011;57319;56.274;43.980;2023-09-19T02:03:00;17.38;;;9.13;;
69981;SDS011;57319;56.274;43.980;2023-09-19T02:05:27;11.55;;;9.23;;
69981;SDS011;57319;56.274;43.980;2023-09-19T02:07:53;16.98;;;10.40;;
69981;SDS011;57319;56.274;43.980;2023-09-19T02:10:19;17.80;;;9.85;;
69981;SDS011;57319;56.274;43.980;2023-09-19T02:12:45;15.63;;;9.82;;
69981;SDS011;57319;56.274;43.980;2023-09-19T02:15:11;15.75;;;9.45;;
69981;SDS011;57319;56.274;43.980;2023-09-19T02:17:37;12.85;;;8.93;;
69981;SDS011;57319;56.274;43.980;2023-09-19T02:20:03;19.80;;;10.15;;
69981;SDS011;57319;56.274;43.980;2023-09-19T02:22:39;14.98;;;8.98;;
69981;SDS011;57319;56.274;43.980;2023-09-19T02:25:24;15.35;;;9.38;;
69981;SDS011;57319;56.274;43.980;2023-09-19T02:27:51;23.13;;;9.40;;
69981;SDS011;57319;56.274;43.980;2023-09-19T02:30:19;12.07;;;8.85;;
69981;SDS011;57319;56.274;43.980;2023-09-19T02:32:50;13.90;;;8.68;;
69981;SDS011;57319;56.274;43.980;2023-09-19T02:35:16;10.38;;;7.88;;
69981;SDS011;57319;56.274;43.980;2023-09-19T02:37:41;13.68;;;8.55;;
69981;SDS011;57319;56.274;43.980;2023-09-19T02:40:07;13.38;;;8.65;;
69981;SDS011;57319;56.274;43.980;2023-09-19T02:42:52;13.82;;;8.57;;
69981;SDS011;57319;56.274;43.980;2023-09-19T02:45:19;12.65;;;9.30;;
69981;SDS011;57319;56.274;43.980;2023-09-19T02:47:46;21.65;;;9.40;;
69981;SDS011;57319;56.274;43.980;2023-09-19T02:50:15;16.63;;;8.50;;
69981;SDS011;57319;56.274;43.980;2023-09-19T02:52:42;22.08;;;8.23;;
69981;SDS011;57319;56.274;43.980;2023-09-19T02:55:10;9.98;;;7.68;;
69981;SDS011;57319;56.274;43.980;2023-09-19T02:57:37;13.82;;;8.15;;
69981;SDS011;57319;56.274;43.980;2023-09-19T03:00:07;15.90;;;8.65;;
69981;SDS011;57319;56.274;43.980;2023-09-19T03:02:36;19.20;;;8.23;;
69981;SDS011;57319;56.274;43.980;2023-09-19T03:05:03;22.70;;;8.48;;
69981;SDS011;57319;56.274;43.980;2023-09-19T03:07:30;14.73;;;8.25;;
69981;SDS011;57319;56.274;43.980;2023-09-19T03:09:56;16.85;;;8.20;;
69981;SDS011;57319;56.274;43.980;2023-09-19T03:12:22;11.30;;;8.00;;
69981;SDS011;57319;56.274;43.980;2023-09-19T03:14:47;15.13;;;7.90;;
69981;SDS011;57319;56.274;43.980;2023-09-19T03:17:13;26.17;;;7.40;;
69981;SDS011;57319;56.274;43.980;2023-09-19T03:19:40;15.40;;;8.20;;
69981;SDS011;57319;56.274;43.980;2023-09-19T03:22:05;18.35;;;8.15;;
69981;SDS011;57319;56.274;43.980;2023-09-19T03:24:32;19.10;;;8.05;;
69981;SDS011;57319;56.274;43.980;2023-09-19T03:27:00;18.65;;;8.10;;
69981;SDS011;57319;56.274;43.980;2023-09-19T03:29:26;13.85;;;7.82;;
69981;SDS011;57319;56.274;43.980;2023-09-19T03:31:52;14.82;;;8.57;;
69981;SDS011;57319;56.274;43.980;2023-09-19T03:34:19;16.25;;;7.70;;
69981;SDS011;57319;56.274;43.980;2023-09-19T03:36:46;22.17;;;8.73;;
69981;SDS011;57319;56.274;43.980;2023-09-19T03:39:12;11.93;;;7.70;;
69981;SDS011;57319;56.274;43.980;2023-09-19T03:41:40;14.82;;;9.25;;
69981;SDS011;57319;56.274;43.980;2023-09-19T03:44:05;14.82;;;8.52;;
69981;SDS011;57319;56.274;43.980;2023-09-19T03:46:31;27.95;;;8.25;;
69981;SDS011;57319;56.274;43.980;2023-09-19T03:48:57;10.77;;;7.57;;
69981;SDS011;57319;56.274;43.980;2023-09-19T03:51:23;16.00;;;7.22;;
69981;SDS011;57319;56.274;43.980;2023-09-19T03:53:48;17.48;;;7.47;;
69981;SDS011;57319;56.274;43.980;2023-09-19T03:56:17;20.00;;;7.40;;
69981;SDS011;57319;56.274;43.980;2023-09-19T03:58:42;9.98;;;6.15;;
69981;SDS011;57319;56.274;43.980;2023-09-19T04:01:08;1.80;;;1.80;;
69981;SDS011;57319;56.274;43.980;2023-09-19T04:03:34;2.35;;;1.80;;
69981;SDS011;57319;56.274;43.980;2023-09-19T04:06:10;4.07;;;1.75;;
69981;SDS011;57319;56.274;43.980;2023-09-19T04:08:37;2.65;;;1.20;;
69981;SDS011;57319;56.274;43.980;2023-09-19T04:11:02;4.65;;;1.85;;
69981;SDS011;57319;56.274;43.980;2023-09-19T04:13:28;1.73;;;1.42;;
69981;SDS011;57319;56.274;43.980;2023-09-19T04:15:55;7.82;;;1.80;;
69981;SDS011;57319;56.274;43.980;2023-09-19T04:18:21;2.40;;;1.27;;
69981;SDS011;57319;56.274;43.980;2023-09-19T04:20:51;7.53;;;1.73;;
69981;SDS011;57319;56.274;43.980;2023-09-19T04:23:17;1.95;;;1.92;;
69981;SDS011;57319;56.274;43.980;2023-09-19T04:25:45;38.90;;;4.45;;
69981;SDS011;57319;56.274;43.980;2023-09-19T04:28:11;2.00;;;1.90;;
69981;SDS011;57319;56.274;43.980;2023-09-19T04:30:37;2.60;;;1.83;;
69981;SDS011;57319;56.274;43.980;2023-09-19T04:33:03;4.13;;;2.00;;
69981;SDS011;57319;56.274;43.980;2023-09-19T04:35:29;1.95;;;1.80;;
69981;SDS011;57319;56.274;43.980;2023-09-19T04:37:57;2.17;;;2.08;;
69981;SDS011;57319;56.274;43.980;2023-09-19T04:40:22;4.53;;;1.92;;
69981;SDS011;57319;56.274;43.980;2023-09-19T04:42:53;4.43;;;2.03;;
69981;SDS011;57319;56.274;43.980;2023-09-19T04:45:22;7.80;;;2.15;;
69981;SDS011;57319;56.274;43.980;2023-09-19T04:47:48;2.72;;;1.52;;
69981;SDS011;57319;56.274;43.980;2023-09-19T04:50:14;1.52;;;1.52;;
69981;SDS011;57319;56.274;43.980;2023-09-19T04:52:40;3.45;;;1.52;;
69981;SDS011;57319;56.274;43.980;2023-09-19T04:55:08;1.48;;;1.38;;
69981;SDS011;57319;56.274;43.980;2023-09-19T04:57:35;2.05;;;1.35;;
69981;SDS011;57319;56.274;43.980;2023-09-19T05:00:02;4.28;;;1.50;;
69981;SDS011;57319;56.274;43.980;2023-09-19T05:02:35;16.95;;;1.55;;
69981;SDS011;57319;56.274;43.980;2023-09-19T05:05:01;1.45;;;1.33;;
69981;SDS011;57319;56.274;43.980;2023-09-19T05:07:27;6.10;;;1.30;;
69981;SDS011;57319;56.274;43.980;2023-09-19T05:09:52;14.23;;;1.98;;
69981;SDS011;57319;56.274;43.980;2023-09-19T05:12:18;0.80;;;0.80;;
69981;SDS011;57319;56.274;43.980;2023-09-19T05:14:45;3.92;;;1.20;;
69981;SDS011;57319;56.274;43.980;2023-09-19T05:17:10;4.20;;;1.13;;
69981;SDS011;57319;56.274;43.980;2023-09-19T05:19:36;5.50;;;1.30;;
69981;SDS011;57319;56.274;43.980;2023-09-19T05:22:03;6.70;;;1.20;;
69981;SDS011;57319;56.274;43.980;2023-09-19T05:24:30;1.90;;;1.15;;
69981;SDS011;57319;56.274;43.980;2023-09-19T05:26:56;2.00;;;0.90;;
69981;SDS011;57319;56.274;43.980;2023-09-19T05:29:22;3.33;;;1.10;;
69981;SDS011;57319;56.274;43.980;2023-09-19T05:31:48;1.85;;;1.02;;
69981;SDS011;57319;56.274;43.980;2023-09-19T05:34:15;0.70;;;0.70;;
69981;SDS011;57319;56.274;43.980;2023-09-19T05:36:40;1.73;;;1.17;;
69981;SDS011;57319;56.274;43.980;2023-09-19T05:39:06;9.60;;;1.20;;
69981;SDS011;57319;56.274;43.980;2023-09-19T05:41:35;1.70;;;1.00;;
69981;SDS011;57319;56.274;43.980;2023-09-19T05:44:05;2.45;;;1.27;;
69981;SDS011;57319;56.274;43.980;2023-09-19T05:46:32;2.95;;;0.75;;
69981;SDS011;57319;56.274;43.980;2023-09-19T05:48:58;3.78;;;1.20;;
69981;SDS011;57319;56.274;43.980;2023-09-19T05:51:23;3.80;;;1.05;;
69981;SDS011;57319;56.274;43.980;2023-09-19T05:53:50;1.48;;;1.17;;
69981;SDS011;57319;56.274;43.980;2023-09-19T05:56:17;1.00;;;1.00;;
69981;SDS011;57319;56.274;43.980;2023-09-19T05:58:44;1.48;;;0.93;;
69981;SDS011;57319;56.274;43.980;2023-09-19T06:01:10;2.85;;;1.10;;
69981;SDS011;57319;56.274;43.980;2023-09-19T06:03:35;2.53;;;0.95;;
69981;SDS011;57319;56.274;43.980;2023-09-19T06:06:01;22.75;;;1.30;;
69981;SDS011;57319;56.274;43.980;2023-09-19T06:08:27;2.35;;;1.15;;
69981;SDS011;57319;56.274;43.980;2023-09-19T06:10:54;1.63;;;1.52;;
69981;SDS011;57319;56.274;43.980;2023-09-19T06:13:19;1.17;;;1.17;;
69981;SDS011;57319;56.274;43.980;2023-09-19T06:15:45;1.50;;;1.48;;
69981;SDS011;57319;56.274;43.980;2023-09-19T06:18:14;7.55;;;1.50;;
69981;SDS011;57319;56.274;43.980;2023-09-19T06:20:47;4.13;;;1.73;;
69981;SDS011;57319;56.274;43.980;2023-09-19T06:23:16;1.98;;;1.75;;
69981;SDS011;57319;56.274;43.980;2023-09-19T06:25:42;3.97;;;1.65;;
69981;SDS011;57319;56.274;43.980;2023-09-19T06:28:08;5.82;;;1.75;;
69981;SDS011;57319;56.274;43.980;2023-09-19T06:30:37;1.10;;;1.10;;
69981;SDS011;57319;56.274;43.980;2023-09-19T06:33:07;10.40;;;1.20;;
69981;SDS011;57319;56.274;43.980;2023-09-19T06:35:33;3.90;;;1.20;;
69981;SDS011;57319;56.274;43.980;2023-09-19T06:38:03;1.58;;;0.90;;
69981;SDS011;57319;56.274;43.980;2023-09-19T06:40:29;1.13;;;1.10;;
69981;SDS011;57319;56.274;43.980;2023-09-19T06:42:56;1.55;;;1.45;;
69981;SDS011;57319;56.274;43.980;2023-09-19T06:45:22;0.90;;;0.90;;
69981;SDS011;57319;56.274;43.980;2023-09-19T06:47:52;0.80;;;0.80;;
69981;SDS011;57319;56.274;43.980;2023-09-19T06:50:19;1.25;;;0.82;;
69981;SDS011;57319;56.274;43.980;2023-09-19T06:52:48;0.80;;;0.80;;
69981;SDS011;57319;56.274;43.980;2023-09-19T06:55:17;6.15;;;1.10;;
69981;SDS011;57319;56.274;43.980;2023-09-19T06:57:45;3.03;;;1.23;;
69981;SDS011;57319;56.274;43.980;2023-09-19T07:00:14;6.75;;;0.98;;
69981;SDS011;57319;56.274;43.980;2023-09-19T07:02:44;0.90;;;0.90;;
69981;SDS011;57319;56.274;43.980;2023-09-19T07:05:10;20.00;;;1.52;;
69981;SDS011;57319;56.274;43.980;2023-09-19T07:07:36;2.17;;;1.00;;
69981;SDS011;57319;56.274;43.980;2023-09-19T07:10:03;3.75;;;0.90;;
69981;SDS011;57319;56.274;43.980;2023-09-19T07:12:35;3.35;;;1.10;;
69981;SDS011;57319;56.274;43.980;2023-09-19T07:15:01;5.20;;;1.10;;
69981;SDS011;57319;56.274;43.980;2023-09-19T07:17:30;5.35;;;1.17;;
69981;SDS011;57319;56.274;43.980;2023-09-19T07:19:55;5.47;;;1.02;;
69981;SDS011;57319;56.274;43.980;2023-09-19T07:22:23;7.22;;;1.55;;
69981;SDS011;57319;56.274;43.980;2023-09-19T07:24:48;2.60;;;0.93;;
69981;SDS011;57319;56.274;43.980;2023-09-19T07:27:14;4.30;;;1.08;;
69981;SDS011;57319;56.274;43.980;2023-09-19T07:29:39;5.57;;;0.98;;
69981;SDS011;57319;56.274;43.980;2023-09-19T07:32:05;0.95;;;0.85;;
69981;SDS011;57319;56.274;43.980;2023-09-19T07:34:32;1.33;;;0.93;;
69981;SDS011;57319;56.274;43.980;2023-09-19T07:36:57;4.38;;;1.10;;
69981;SDS011;57319;56.274;43.980;2023-09-19T07:39:23;1.88;;;0.98;;
69981;SDS011;57319;56.274;43.980;2023-09-19T07:41:49;1.10;;;1.10;;
69981;SDS011;57319;56.274;43.980;2023-09-19T07:44:15;0.93;;;0.90;;
69981;SDS011;57319;56.274;43.980;2023-09-19T07:46:40;1.08;;;0.80;;
69981;SDS011;57319;56.274;43.980;2023-09-19T07:49:06;1.20;;;1.20;;
69981;SDS011;57319;56.274;43.980;2023-09-19T07:51:31;3.60;;;1.10;;
69981;SDS011;57319;56.274;43.980;2023-09-19T07:53:58;1.92;;;1.10;;
69981;SDS011;57319;56.274;43.980;2023-09-19T07:56:23;3.65;;;1.27;;
69981;SDS011;57319;56.274;43.980;2023-09-19T07:58:51;8.77;;;1.40;;
69981;SDS011;57319;56.274;43.980;2023-09-19T08:01:17;1.30;;;1.20;;
69981;SDS011;57319;56.274;43.980;2023-09-19T08:03:42;1.38;;;0.90;;
69981;SDS011;57319;56.274;43.980;2023-09-19T08:06:09;1.45;;;1.02;;
69981;SDS011;57319;56.274;43.980;2023-09-19T08:08:35;0.95;;;0.90;;
69981;SDS011;57319;56.274;43.980;2023-09-19T08:11:04;2.88;;;1.08;;
69981;SDS011;57319;56.274;43.980;2023-09-19T08:13:46;1.30;;;1.25;;
69981;SDS011;57319;56.274;43.980;2023-09-19T08:16:14;7.85;;;1.33;;
69981;SDS011;57319;56.274;43.980;2023-09-19T08:18:41;2.05;;;1.25;;
69981;SDS011;57319;56.274;43.980;2023-09-19T08:21:07;4.47;;;1.48;;
69981;SDS011;57319;56.274;43.980;2023-09-19T08:23:36;1.23;;;1.15;;
69981;SDS011;57319;56.274;43.980;2023-09-19T08:26:04;1.42;;;0.90;;
69981;SDS011;57319;56.274;43.980;2023-09-19T08:28:34;1.92;;;1.20;;
69981;SDS011;57319;56.274;43.980;2023-09-19T08:31:04;1.30;;;1.02;;
69981;SDS011;57319;56.274;43.980;2023-09-19T08:33:37;2.25;;;1.40;;
69981;SDS011;57319;56.274;43.980;2023-09-19T08:36:03;2.35;;;1.23;;
69981;SDS011;57319;56.274;43.980;2023-09-19T08:38:33;8.98;;;1.20;;
69981;SDS011;57319;56.274;43.980;2023-09-19T08:41:00;6.90;;;1.50;;
69981;SDS011;57319;56.274;43.980;2023-09-19T08:43:30;9.77;;;1.70;;
69981;SDS011;57319;56.274;43.980;2023-09-19T08:46:09;5.55;;;1.42;;
69981;SDS011;57319;56.274;43.980;2023-09-19T08:48:39;4.55;;;1.65;;
69981;SDS011;57319;56.274;43.980;2023-09-19T08:54:28;3.17;;;1.58;;
69981;SDS011;57319;56.274;43.980;2023-09-19T08:57:01;4.45;;;1.60;;
69981;SDS011;57319;56.274;43.980;2023-09-19T08:59:37;3.63;;;2.20;;
69981;SDS011;57319;56.274;43.980;2023-09-19T09:02:11;4.90;;;1.65;;
69981;SDS011;57319;56.274;43.980;2023-09-19T09:04:40;7.53;;;1.67;;
69981;SDS011;57319;56.274;43.980;2023-09-19T09:07:12;3.45;;;1.80;;
69981;SDS011;57319;56.274;43.980;2023-09-19T09:09:38;10.25;;;2.00;;
69981;SDS011;57319;56.274;43.980;2023-09-19T09:12:13;1.80;;;1.70;;
69981;SDS011;57319;56.274;43.980;2023-09-19T09:14:44;6.55;;;1.90;;
69981;SDS011;57319;56.274;43.980;2023-09-19T09:17:11;2.55;;;2.45;;
69981;SDS011;57319;56.274;43.980;2023-09-19T09:19:37;2.33;;;2.00;;
69981;SDS011;57319;56.274;43.980;2023-09-19T09:22:10;3.00;;;2.30;;
69981;SDS011;57319;56.274;43.980;2023-09-19T09:24:37;3.37;;;2.30;;
69981;SDS011;57319;56.274;43.980;2023-09-19T09:27:15;7.10;;;2.83;;
69981;SDS011;57319;56.274;43.980;2023-09-19T09:29:46;6.05;;;2.72;;
69981;SDS011;57319;56.274;43.980;2023-09-19T09:32:17;4.32;;;2.65;;
69981;SDS011;57319;56.274;43.980;2023-09-19T09:34:45;7.78;;;2.97;;
69981;SDS011;57319;56.274;43.980;2023-09-19T09:37:14;11.38;;;2.40;;
69981;SDS011;57319;56.274;43.980;2023-09-19T09:39:40;2.95;;;2.75;;
69981;SDS011;57319;56.274;43.980;2023-09-19T09:42:29;4.97;;;2.80;;
69981;SDS011;57319;56.274;43.980;2023-09-19T09:45:14;7.05;;;4.03;;
69981;SDS011;57319;56.274;43.980;2023-09-19T09:47:41;7.13;;;4.45;;
69981;SDS011;57319;56.274;43.980;2023-09-19T09:50:26;8.95;;;5.88;;
69981;SDS011;57319;56.274;43.980;2023-09-19T09:53:24;9.07;;;5.47;;
69981;SDS011;57319;56.274;43.980;2023-09-19T09:56:02;6.85;;;3.92;;
69981;SDS011;57319;56.274;43.980;2023-09-19T09:58:34;19.48;;;5.07;;
69981;SDS011;57319;56.274;43.980;2023-09-19T10:01:21;10.50;;;4.50;;
69981;SDS011;57319;56.274;43.980;2023-09-19T10:03:54;7.38;;;4.28;;
69981;SDS011;57319;56.274;43.980;2023-09-19T10:06:23;13.70;;;4.85;;
69981;SDS011;57319;56.274;43.980;2023-09-19T10:11:37;16.00;;;6.72;;
69981;SDS011;57319;56.274;43.980;2023-09-19T10:14:23;23.23;;;7.30;;
69981;SDS011;57319;56.274;43.980;2023-09-19T10:16:54;11.77;;;6.25;;
69981;SDS011;57319;56.274;43.980;2023-09-19T10:19:41;15.80;;;6.50;;
69981;SDS011;57319;56.274;43.980;2023-09-19T10:22:12;18.65;;;4.70;;
69981;SDS011;57319;56.274;43.980;2023-09-19T10:24:46;14.20;;;4.50;;
69981;SDS011;57319;56.274;43.980;2023-09-19T10:27:17;8.48;;;5.55;;
69981;SDS011;57319;56.274;43.980;2023-09-19T10:29:44;16.38;;;6.70;;
69981;SDS011;57319;56.274;43.980;2023-09-19T10:32:15;12.85;;;7.82;;
69981;SDS011;57319;56.274;43.980;2023-09-19T10:34:47;10.43;;;7.03;;
69981;SDS011;57319;56.274;43.980;2023-09-19T10:37:15;16.75;;;7.35;;
69981;SDS011;57319;56.274;43.980;2023-09-19T10:39:45;13.48;;;5.15;;
69981;SDS011;57319;56.274;43.980;2023-09-19T10:42:14;13.35;;;3.15;;
69981;SDS011;57319;56.274;43.980;2023-09-19T10:44:45;6.72;;;2.42;;
69981;SDS011;57319;56.274;43.980;2023-09-19T10:47:19;3.35;;;2.05;;
69981;SDS011;57319;56.274;43.980;2023-09-19T10:49:45;2.45;;;2.28;;
69981;SDS011;57319;56.274;43.980;2023-09-19T10:52:15;5.32;;;2.03;;
69981;SDS011;57319;56.274;43.980;2023-09-19T10:54:46;2.47;;;2.03;;
69981;SDS011;57319;56.274;43.980;2023-09-19T10:57:22;7.35;;;2.03;;
69981;SDS011;57319;56.274;43.980;2023-09-19T11:00:05;2.22;;;1.92;;
69981;SDS011;57319;56.274;43.980;2023-09-19T11:05:40;11.85;;;5.45;;
69981;SDS011;57319;56.274;43.980;2023-09-19T11:08:07;5.72;;;4.90;;
69981;SDS011;57319;56.274;43.980;2023-09-19T11:10:49;6.85;;;4.15;;
69981;SDS011;57319;56.274;43.980;2023-09-19T11:13:29;3.05;;;2.60;;
69981;SDS011;57319;56.274;43.980;2023-09-19T11:16:04;7.68;;;2.10;;
69981;SDS011;57319;56.274;43.980;2023-09-19T11:18:50;2.33;;;2.05;;
69981;SDS011;57319;56.274;43.980;2023-09-19T11:26:50;6.55;;;1.80;;
69981;SDS011;57319;56.274;43.980;2023-09-19T11:29:32;6.53;;;1.75;;
69981;SDS011;57319;56.274;43.980;2023-09-19T11:31:58;4.13;;;1.95;;
69981;SDS011;57319;56.274;43.980;2023-09-19T11:39:37;5.55;;;2.30;;
69981;SDS011;57319;56.274;43.980;2023-09-19T11:45:07;6.72;;;2.47;;
69981;SDS011;57319;56.274;43.980;2023-09-19T11:47:33;7.10;;;2.00;;
69981;SDS011;57319;56.274;43.980;2023-09-19T11:50:01;20.58;;;2.50;;
69981;SDS011;57319;56.274;43.980;2023-09-19T11:52:29;2.53;;;1.90;;
69981;SDS011;57319;56.274;43.980;2023-09-19T11:55:00;1.77;;;1.67;;
69981;SDS011;57319;56.274;43.980;2023-09-19T11:57:28;6.65;;;1.77;;
69981;SDS011;57319;56.274;43.980;2023-09-19T11:59:57;4.65;;;1.60;;
69981;SDS011;57319;56.274;43.980;2023-09-19T12:02:42;8.60;;;1.80;;
69981;SDS011;57319;56.274;43.980;2023-09-19T12:05:12;1.70;;;1.38;;
69981;SDS011;57319;56.274;43.980;2023-09-19T12:07:44;7.05;;;2.45;;
69981;SDS011;57319;56.274;43.980;2023-09-19T12:10:13;5.90;;;1.90;;
69981;SDS011;57319;56.274;43.980;2023-09-19T12:12:47;1.52;;;1.40;;
69981;SDS011;57319;56.274;43.980;2023-09-19T12:15:24;9.07;;;1.92;;
69981;SDS011;57319;56.274;43.980;2023-09-19T12:18:00;9.13;;;1.77;;
69981;SDS011;57319;56.274;43.980;2023-09-19T12:20:41;5.28;;;2.03;;
69981;SDS011;57319;56.274;43.980;2023-09-19T12:23:12;4.03;;;1.25;;
69981;SDS011;57319;56.274;43.980;2023-09-19T12:25:42;1.13;;;1.10;;
69981;SDS011;57319;56.274;43.980;2023-09-19T12:28:12;8.77;;;1.45;;
69981;SDS011;57319;56.274;43.980;2023-09-19T12:30:37;9.30;;;1.50;;
69981;SDS011;57319;56.274;43.980;2023-09-19T12:35:57;10.25;;;1.95;;
69981;SDS011;57319;56.274;43.980;2023-09-19T12:38:27;2.25;;;1.15;;
69981;SDS011;57319;56.274;43.980;2023-09-19T12:40:55;2.90;;;1.50;;
69981;SDS011;57319;56.274;43.980;2023-09-19T12:43:25;2.45;;;1.25;;
69981;SDS011;57319;56.274;43.980;2023-09-19T12:45:52;7.07;;;1.48;;
69981;SDS011;57319;56.274;43.980;2023-09-19T12:48:22;17.17;;;1.90;;
69981;SDS011;57319;56.274;43.980;2023-09-19T12:53:26;4.57;;;1.30;;
69981;SDS011;57319;56.274;43.980;2023-09-19T12:56:00;7.18;;;1.67;;
69981;SDS011;57319;56.274;43.980;2023-09-19T12:58:26;8.98;;;2.05;;
69981;SDS011;57319;56.274;43.980;2023-09-19T13:00:52;4.82;;;1.20;;
69981;SDS011;57319;56.274;43.980;2023-09-19T13:03:25;1.60;;;1.52;;
69981;SDS011;57319;56.274;43.980;2023-09-19T13:05:59;8.65;;;1.40;;
69981;SDS011;57319;56.274;43.980;2023-09-19T13:13:32;2.20;;;1.42;;
69981;SDS011;57319;56.274;43.980;2023-09-19T13:16:00;4.47;;;1.27;;
69981;SDS011;57319;56.274;43.980;2023-09-19T13:18:28;4.10;;;1.95;;
69981;SDS011;57319;56.274;43.980;2023-09-19T13:21:10;1.75;;;1.58;;
69981;SDS011;57319;56.274;43.980;2023-09-19T13:23:41;4.75;;;1.52;;
69981;SDS011;57319;56.274;43.980;2023-09-19T13:26:09;4.10;;;1.15;;
69981;SDS011;57319;56.274;43.980;2023-09-19T13:28:37;17.58;;;1.20;;
69981;SDS011;57319;56.274;43.980;2023-09-19T13:31:03;8.48;;;2.00;;
69981;SDS011;57319;56.274;43.980;2023-09-19T13:33:29;4.32;;;1.20;;
69981;SDS011;57319;56.274;43.980;2023-09-19T13:35:55;1.50;;;1.40;;
69981;SDS011;57319;56.274;43.980;2023-09-19T13:38:22;4.15;;;1.23;;
69981;SDS011;57319;56.274;43.980;2023-09-19T13:40:48;8.85;;;1.27;;
69981;SDS011;57319;56.274;43.980;2023-09-19T13:43:14;6.10;;;0.90;;
69981;SDS011;57319;56.274;43.980;2023-09-19T13:45:41;3.33;;;1.23;;
69981;SDS011;57319;56.274;43.980;2023-09-19T13:48:07;11.65;;;1.45;;
69981;SDS011;57319;56.274;43.980;2023-09-19T13:50:36;7.25;;;1.50;;
69981;SDS011;57319;56.274;43.980;2023-09-19T13:53:07;28.55;;;4.10;;
69981;SDS011;57319;56.274;43.980;2023-09-19T13:55:34;9.20;;;1.65;;
69981;SDS011;57319;56.274;43.980;2023-09-19T13:58:00;3.80;;;1.30;;
69981;SDS011;57319;56.274;43.980;2023-09-19T14:00:25;3.00;;;1.00;;
69981;SDS011;57319;56.274;43.980;2023-09-19T14:02:52;1.10;;;1.00;;
69981;SDS011;57319;56.274;43.980;2023-09-19T14:05:18;11.43;;;1.77;;
69981;SDS011;57319;56.274;43.980;2023-09-19T14:07:44;1.45;;;1.00;;
69981;SDS011;57319;56.274;43.980;2023-09-19T14:10:10;16.40;;;1.70;;
69981;SDS011;57319;56.274;43.980;2023-09-19T14:12:39;5.38;;;1.30;;
69981;SDS011;57319;56.274;43.980;2023-09-19T14:15:08;6.53;;;1.77;;
69981;SDS011;57319;56.274;43.980;2023-09-19T14:17:35;28.50;;;2.65;;
69981;SDS011;57319;56.274;43.980;2023-09-19T14:20:01;33.55;;;3.65;;
69981;SDS011;57319;56.274;43.980;2023-09-19T14:22:27;4.47;;;1.50;;
69981;SDS011;57319;56.274;43.980;2023-09-19T14:24:52;44.15;;;3.15;;
69981;SDS011;57319;56.274;43.980;2023-09-19T14:27:18;32.70;;;2.72;;
69981;SDS011;57319;56.274;43.980;2023-09-19T14:29:44;18.70;;;1.65;;
69981;SDS011;57319;56.274;43.980;2023-09-19T14:32:10;1.98;;;1.35;;
69981;SDS011;57319;56.274;43.980;2023-09-19T14:34:36;7.97;;;1.25;;
69981;SDS011;57319;56.274;43.980;2023-09-19T14:37:07;7.22;;;1.50;;
69981;SDS011;57319;56.274;43.980;2023-09-19T14:39:33;15.70;;;2.00;;
69981;SDS011;57319;56.274;43.980;2023-09-19T14:41:59;3.90;;;1.27;;
69981;SDS011;57319;56.274;43.980;2023-09-19T14:44:24;11.85;;;1.60;;
69981;SDS011;57319;56.274;43.980;2023-09-19T14:46:50;20.63;;;3.00;;
69981;SDS011;57319;56.274;43.980;2023-09-19T14:49:16;18.58;;;5.07;;
69981;SDS011;57319;56.274;43.980;2023-09-19T14:51:42;14.02;;;4.60;;
69981;SDS011;57319;56.274;43.980;2023-09-19T14:54:13;18.35;;;4.75;;
69981;SDS011;57319;56.274;43.980;2023-09-19T14:56:42;17.15;;;4.70;;
69981;SDS011;57319;56.274;43.980;2023-09-19T14:59:08;14.10;;;5.22;;
69981;SDS011;57319;56.274;43.980;2023-09-19T15:01:35;18.80;;;4.93;;
69981;SDS011;57319;56.274;43.980;2023-09-19T15:04:01;10.10;;;5.40;;
69981;SDS011;57319;56.274;43.980;2023-09-19T15:06:27;28.15;;;6.32;;
69981;SDS011;57319;56.274;43.980;2023-09-19T15:08:53;26.42;;;4.65;;
69981;SDS011;57319;56.274;43.980;2023-09-19T15:11:19;16.40;;;4.80;;
69981;SDS011;57319;56.274;43.980;2023-09-19T15:13:46;11.95;;;4.20;;
69981;SDS011;57319;56.274;43.980;2023-09-19T15:16:12;12.68;;;5.22;;
69981;SDS011;57319;56.274;43.980;2023-09-19T15:18:40;21.80;;;4.20;;
69981;SDS011;57319;56.274;43.980;2023-09-19T15:21:07;16.45;;;3.95;;